createdAt,value
2024-05-09T00:00:42.083Z,5.20
2024-05-09T00:03:10.981Z,4.50
2024-05-09T00:05:41.068Z,4.97
2024-05-09T00:08:09.523Z,5.13
2024-05-09T00:10:39.073Z,5.35
2024-05-09T00:13:07.789Z,4.63
2024-05-09T00:15:35.959Z,4.88
2024-05-09T00:18:04.375Z,4.78
2024-05-09T00:20:38.194Z,5.30
2024-05-09T00:23:12.338Z,5.13
2024-05-09T00:25:42.127Z,5.40
2024-05-09T00:28:09.507Z,5.30
2024-05-09T00:30:37.483Z,5.28
2024-05-09T00:33:06.706Z,5.10
2024-05-09T00:35:35.243Z,4.72
2024-05-09T00:38:02.582Z,4.82
2024-05-09T00:40:40.838Z,4.63
2024-05-09T00:43:11.120Z,4.07
2024-05-09T00:45:38.568Z,5.47
2024-05-09T00:48:07.789Z,5.45
2024-05-09T00:50:38.082Z,5.40
2024-05-09T00:53:06.809Z,5.22
2024-05-09T00:55:35.343Z,4.43
2024-05-09T00:58:03.182Z,4.88
2024-05-09T01:00:37.859Z,5.18
2024-05-09T01:03:08.843Z,5.65
2024-05-09T01:05:39.065Z,5.03
2024-05-09T01:08:07.060Z,4.95
2024-05-09T01:10:35.974Z,5.13
2024-05-09T01:13:07.271Z,4.88
2024-05-09T01:15:35.363Z,5.00
2024-05-09T01:18:07.028Z,4.68
2024-05-09T01:20:41.275Z,4.97
2024-05-09T01:23:11.955Z,5.40
2024-05-09T01:25:39.890Z,5.38
2024-05-09T01:28:07.338Z,5.18
2024-05-09T01:30:37.024Z,5.75
2024-05-09T01:33:09.940Z,4.50
2024-05-09T01:35:41.457Z,4.00
2024-05-09T01:38:12.163Z,4.65
2024-05-09T01:40:40.386Z,4.95
2024-05-09T01:43:12.283Z,5.10
2024-05-09T01:45:40.380Z,5.47
2024-05-09T01:48:08.457Z,4.97
2024-05-09T01:50:40.074Z,5.13
2024-05-09T01:53:12.249Z,5.05
2024-05-09T01:55:39.784Z,5.93
2024-05-09T01:58:07.489Z,5.03
2024-05-09T02:00:40.079Z,5.15
2024-05-09T02:03:16.049Z,4.97
2024-05-09T02:05:45.740Z,4.90
2024-05-09T02:08:18.530Z,4.60
2024-05-09T02:10:47.260Z,4.10
2024-05-09T02:13:15.134Z,5.07
2024-05-09T02:15:42.413Z,5.28
2024-05-09T02:18:10.431Z,5.03
2024-05-09T02:20:39.217Z,4.78
2024-05-09T02:23:07.154Z,4.97
2024-05-09T02:25:34.986Z,4.95
2024-05-09T02:28:02.472Z,5.07
2024-05-09T02:30:38.175Z,5.00
2024-05-09T02:33:09.948Z,5.60
2024-05-09T02:35:38.994Z,5.13
2024-05-09T02:38:06.382Z,5.90
2024-05-09T02:40:37.451Z,5.72
2024-05-09T02:43:11.111Z,4.95
2024-05-09T02:45:39.854Z,6.30
2024-05-09T02:48:10.122Z,6.20
2024-05-09T02:50:39.643Z,5.60
2024-05-09T02:53:14.572Z,5.10
2024-05-09T02:55:42.234Z,5.03
2024-05-09T02:58:09.892Z,4.47
2024-05-09T03:00:40.696Z,5.05
2024-05-09T03:03:14.742Z,6.35
2024-05-09T03:05:43.967Z,5.70
2024-05-09T03:08:11.568Z,4.78
2024-05-09T03:10:39.583Z,5.85
2024-05-09T03:13:12.907Z,5.40
2024-05-09T03:15:41.343Z,5.25
2024-05-09T03:18:08.837Z,5.43
2024-05-09T03:20:37.059Z,5.53
2024-05-09T03:23:06.261Z,4.13
2024-05-09T03:25:34.079Z,5.35
2024-05-09T03:28:01.743Z,4.65
2024-05-09T03:30:39.071Z,4.55
2024-05-09T03:33:18.611Z,4.22
2024-05-09T03:35:48.941Z,4.18
2024-05-09T03:38:17.103Z,3.97
2024-05-09T03:40:45.992Z,4.25
2024-05-09T03:43:13.566Z,4.78
2024-05-09T03:45:40.774Z,4.10
2024-05-09T03:48:08.471Z,4.05
2024-05-09T03:50:37.077Z,4.32
2024-05-09T03:53:05.076Z,4.07
2024-05-09T03:55:32.790Z,3.70
2024-05-09T03:58:00.620Z,3.38
2024-05-09T04:00:35.588Z,3.65
2024-05-09T04:03:10.273Z,3.45
2024-05-09T04:05:41.774Z,3.65
2024-05-09T04:08:12.398Z,3.22
2024-05-09T04:10:40.448Z,3.40
2024-05-09T04:13:09.256Z,3.67
2024-05-09T04:15:36.600Z,3.30
2024-05-09T04:18:04.154Z,3.40
2024-05-09T04:20:38.683Z,3.55
2024-05-09T04:23:10.851Z,3.55
2024-05-09T04:25:38.409Z,3.55
2024-05-09T04:28:12.076Z,3.47
2024-05-09T04:30:41.295Z,3.08
2024-05-09T04:33:14.294Z,3.17
2024-05-09T04:35:43.397Z,2.80
2024-05-09T04:38:11.377Z,3.75
2024-05-09T04:40:38.766Z,2.97
2024-05-09T04:43:06.977Z,3.70
2024-05-09T04:45:35.259Z,2.95
2024-05-09T04:48:03.359Z,3.03
2024-05-09T04:50:36.786Z,3.83
2024-05-09T04:53:08.393Z,2.88
2024-05-09T04:55:37.322Z,2.95
2024-05-09T04:58:05.719Z,3.78
2024-05-09T05:00:37.201Z,3.55
2024-05-09T05:03:08.390Z,3.10
2024-05-09T05:18:43.911Z,2.80
2024-05-09T05:21:35.263Z,3.33
2024-05-09T05:24:23.084Z,3.35
2024-05-09T05:27:01.260Z,2.45
2024-05-09T05:29:38.147Z,2.88
2024-05-09T05:32:16.227Z,3.28
2024-05-09T05:35:01.612Z,3.42
2024-05-09T05:37:40.278Z,2.75
2024-05-09T05:43:31.858Z,3.30
2024-05-09T05:46:09.922Z,3.25
2024-05-09T05:51:52.969Z,3.25
2024-05-09T05:54:25.331Z,2.42
2024-05-09T05:56:52.758Z,2.67
2024-05-09T05:59:20.071Z,2.95
2024-05-09T06:01:47.691Z,3.22
2024-05-09T06:04:15.006Z,3.28
2024-05-09T06:06:42.264Z,3.05
2024-05-09T06:09:09.564Z,2.97
2024-05-09T06:11:36.833Z,2.88
2024-05-09T06:14:05.546Z,2.95
2024-05-09T06:16:32.963Z,3.33
2024-05-09T06:19:00.099Z,3.75
2024-05-09T06:21:27.283Z,3.25
2024-05-09T06:23:54.749Z,3.25
2024-05-09T06:26:21.906Z,2.95
2024-05-09T06:28:49.106Z,2.88
2024-05-09T06:31:16.794Z,2.95
2024-05-09T06:33:44.281Z,2.63
2024-05-09T06:36:12.388Z,3.30
2024-05-09T06:38:39.822Z,3.03
2024-05-09T06:41:07.241Z,3.88
2024-05-09T06:43:35.282Z,3.65
2024-05-09T06:46:03.040Z,2.83
2024-05-09T06:48:31.887Z,3.13
2024-05-09T06:50:59.294Z,2.50
2024-05-09T06:53:26.695Z,4.13
2024-05-09T06:55:54.085Z,3.58
2024-05-09T06:58:21.273Z,4.13
2024-05-09T07:00:51.006Z,3.53
2024-05-09T07:03:19.683Z,3.28
2024-05-09T07:05:48.840Z,3.10
2024-05-09T07:08:17.878Z,3.30
2024-05-09T07:10:48.851Z,3.05
2024-05-09T07:13:16.777Z,3.15
2024-05-09T07:15:44.321Z,2.95
2024-05-09T07:18:12.577Z,3.20
2024-05-09T07:20:40.814Z,3.53
2024-05-09T07:23:12.106Z,3.10
2024-05-09T07:25:42.559Z,3.10
2024-05-09T07:28:18.775Z,3.47
2024-05-09T07:33:17.880Z,2.88
2024-05-09T07:35:46.507Z,3.05
2024-05-09T07:38:14.056Z,3.00
2024-05-09T07:40:41.802Z,2.80
2024-05-09T07:43:11.806Z,2.65
2024-05-09T07:45:48.716Z,2.92
2024-05-09T07:52:38.316Z,3.35
2024-05-09T07:53:46.543Z,2.65
2024-05-09T07:56:18.100Z,2.47
2024-05-09T07:58:45.989Z,2.38
2024-05-09T08:01:13.287Z,2.47
2024-05-09T08:03:41.043Z,2.90
2024-05-09T08:06:08.249Z,2.58
2024-05-09T08:08:35.345Z,3.25
2024-05-09T08:11:02.911Z,2.60
2024-05-09T08:13:30.066Z,2.70
2024-05-09T08:15:57.317Z,2.33
2024-05-09T08:18:24.653Z,2.58
2024-05-09T08:20:52.587Z,2.30
2024-05-09T08:23:19.759Z,2.20
2024-05-09T08:25:47.973Z,2.67
2024-05-09T08:28:15.424Z,2.35
2024-05-09T08:30:43.159Z,2.75
2024-05-09T08:33:10.611Z,2.40
2024-05-09T08:35:37.823Z,2.42
2024-05-09T08:38:06.193Z,1.75
2024-05-09T08:40:36.239Z,2.10
2024-05-09T08:43:10.851Z,2.15
2024-05-09T08:45:43.591Z,2.90
2024-05-09T08:48:12.884Z,2.50
2024-05-09T08:50:40.958Z,2.40
2024-05-09T08:53:08.949Z,2.70
2024-05-09T08:55:40.416Z,2.40
2024-05-09T08:58:12.752Z,2.25
2024-05-09T09:00:40.100Z,1.92
2024-05-09T09:03:07.838Z,2.08
2024-05-09T09:05:35.166Z,2.05
2024-05-09T09:08:04.466Z,2.03
2024-05-09T09:10:33.005Z,2.05
2024-05-09T09:13:05.057Z,1.80
2024-05-09T09:15:33.175Z,2.78
2024-05-09T09:18:01.071Z,2.30
2024-05-09T09:20:35.936Z,1.55
2024-05-09T09:23:04.824Z,1.65
2024-05-09T09:25:32.413Z,1.35
2024-05-09T09:27:59.745Z,1.60
2024-05-09T09:30:35.185Z,1.67
2024-05-09T09:33:06.467Z,2.10
2024-05-09T09:35:34.635Z,1.83
2024-05-09T09:38:05.981Z,1.92
2024-05-09T09:40:40.972Z,1.52
2024-05-09T09:43:23.260Z,1.77
2024-05-09T09:45:53.227Z,1.52
2024-05-09T09:48:22.757Z,1.10
2024-05-09T09:50:51.524Z,1.13
2024-05-09T09:53:19.287Z,1.50
2024-05-09T09:55:46.782Z,1.02
2024-05-09T09:58:14.862Z,1.25
2024-05-09T10:00:42.421Z,0.93
2024-05-09T10:03:09.860Z,1.92
2024-05-09T10:05:37.544Z,1.42
2024-05-09T10:08:06.731Z,0.95
2024-05-09T10:10:35.116Z,0.82
2024-05-09T10:13:06.634Z,0.95
2024-05-09T10:15:46.866Z,1.20
2024-05-09T10:18:14.896Z,0.90
2024-05-09T10:20:46.155Z,1.35
2024-05-09T10:23:30.394Z,1.35
2024-05-09T10:26:05.396Z,0.75
2024-05-09T10:28:34.009Z,1.27
2024-05-09T10:31:15.072Z,1.08
2024-05-09T10:33:47.756Z,0.77
2024-05-09T10:36:25.075Z,1.08
2024-05-09T10:38:53.347Z,0.90
2024-05-09T10:41:21.219Z,1.27
2024-05-09T10:43:48.654Z,1.00
2024-05-09T10:46:16.707Z,1.27
2024-05-09T10:48:44.621Z,0.60
2024-05-09T10:51:16.273Z,1.02
2024-05-09T10:53:44.235Z,1.55
2024-05-09T10:56:12.076Z,0.90
2024-05-09T10:58:39.337Z,1.05
2024-05-09T11:01:07.476Z,1.02
2024-05-09T11:03:35.651Z,1.10
2024-05-09T11:06:03.334Z,0.90
2024-05-09T11:08:32.494Z,1.10
2024-05-09T11:11:00.300Z,0.77
2024-05-09T11:13:31.051Z,0.73
2024-05-09T11:15:59.274Z,0.80
2024-05-09T11:18:29.798Z,0.95
2024-05-09T11:20:59.387Z,1.00
2024-05-09T11:23:27.498Z,0.57
2024-05-09T11:25:56.586Z,0.57
2024-05-09T11:28:24.054Z,0.77
2024-05-09T11:30:51.495Z,0.60
2024-05-09T11:33:19.511Z,0.68
2024-05-09T11:35:47.205Z,0.80
2024-05-09T11:38:14.373Z,0.90
2024-05-09T11:40:41.931Z,0.55
2024-05-09T11:43:09.165Z,0.73
2024-05-09T11:45:36.446Z,0.45
2024-05-09T11:48:04.793Z,0.50
2024-05-09T11:50:35.887Z,0.45
2024-05-09T11:53:03.946Z,0.60
2024-05-09T11:55:31.270Z,0.60
2024-05-09T11:57:58.570Z,1.15
2024-05-09T12:00:33.953Z,0.90
2024-05-09T12:03:05.698Z,0.50
2024-05-09T12:05:34.262Z,0.25
2024-05-09T12:08:02.055Z,1.02
2024-05-09T12:10:33.772Z,0.55
2024-05-09T12:13:05.347Z,0.40
2024-05-09T12:15:38.256Z,0.55
2024-05-09T12:18:07.168Z,0.68
2024-05-09T12:20:38.499Z,0.50
2024-05-09T12:23:10.076Z,0.30
2024-05-09T12:25:43.223Z,0.40
2024-05-09T12:28:16.076Z,0.30
2024-05-09T12:30:43.331Z,0.30
2024-05-09T12:33:12.365Z,0.20
2024-05-09T12:35:43.338Z,0.10
2024-05-09T12:38:13.655Z,0.20
2024-05-09T12:40:46.815Z,0.25
2024-05-09T12:43:16.290Z,0.10
2024-05-09T12:45:51.782Z,0.15
2024-05-09T12:48:19.285Z,0.32
2024-05-09T12:50:46.814Z,0.28
2024-05-09T12:53:14.119Z,0.38
2024-05-09T12:55:48.442Z,0.30
2024-05-09T12:58:24.588Z,0.30
2024-05-09T13:00:52.787Z,0.50
2024-05-09T13:03:20.954Z,0.38
2024-05-09T13:05:49.737Z,0.30
2024-05-09T13:08:17.151Z,0.40
2024-05-09T13:10:44.524Z,0.32
2024-05-09T13:13:12.370Z,0.85
2024-05-09T13:15:40.016Z,0.73
2024-05-09T13:18:07.593Z,0.30
2024-05-09T13:20:36.308Z,0.40
2024-05-09T13:23:08.253Z,0.80
2024-05-09T13:25:37.107Z,0.88
2024-05-09T13:28:05.837Z,0.68
2024-05-09T13:30:39.620Z,0.63
2024-05-09T13:33:14.747Z,0.50
2024-05-09T13:35:46.916Z,0.60
2024-05-09T13:38:21.199Z,0.37
2024-05-09T13:40:49.838Z,0.25
2024-05-09T13:43:18.301Z,0.32
2024-05-09T13:45:45.825Z,0.30
2024-05-09T13:48:13.243Z,0.40
2024-05-09T13:50:40.876Z,0.38
2024-05-09T13:53:08.993Z,0.43
2024-05-09T13:55:40.653Z,0.50
2024-05-09T13:58:09.132Z,0.85
2024-05-09T14:00:45.166Z,0.43
2024-05-09T14:03:17.116Z,0.60
2024-05-09T14:05:46.763Z,0.50
2024-05-09T14:08:15.699Z,0.43
2024-05-09T14:10:48.942Z,0.40
2024-05-09T14:13:16.745Z,0.43
2024-05-09T14:15:46.835Z,0.40
2024-05-09T14:18:18.508Z,0.65
2024-05-09T14:20:45.790Z,0.20
2024-05-09T14:23:13.248Z,0.40
2024-05-09T14:25:42.662Z,0.40
2024-05-09T14:28:12.561Z,0.35
2024-05-09T14:30:45.094Z,0.40
2024-05-09T14:33:12.649Z,0.40
2024-05-09T14:35:40.425Z,0.47
2024-05-09T14:38:08.933Z,0.88
2024-05-09T14:40:41.723Z,0.90
2024-05-09T14:43:11.902Z,0.50
2024-05-09T14:45:39.669Z,0.50
2024-05-09T14:48:07.789Z,0.50
2024-05-09T14:50:38.644Z,0.40
2024-05-09T14:53:08.266Z,0.43
2024-05-09T14:55:37.230Z,0.75
2024-05-09T14:58:09.687Z,0.50
2024-05-09T15:00:45.775Z,0.30
2024-05-09T15:03:17.975Z,0.68
2024-05-09T15:05:45.601Z,0.45
2024-05-09T15:08:12.853Z,0.40
2024-05-09T15:10:40.325Z,0.50
2024-05-09T15:13:09.649Z,1.05
2024-05-09T15:15:38.502Z,0.50
2024-05-09T15:18:06.400Z,0.70
2024-05-09T15:20:36.616Z,0.88
2024-05-09T15:23:05.266Z,0.70
2024-05-09T15:25:36.380Z,0.65
2024-05-09T15:28:05.135Z,0.77
2024-05-09T15:30:34.203Z,0.73
2024-05-09T15:33:06.763Z,0.85
2024-05-09T15:35:35.787Z,0.60
2024-05-09T15:38:04.747Z,1.33
2024-05-09T15:40:39.072Z,0.32
2024-05-09T15:43:10.860Z,0.50
2024-05-09T15:45:40.438Z,0.40
2024-05-09T15:48:10.638Z,0.50
2024-05-09T15:50:41.555Z,0.50
2024-05-09T15:53:11.824Z,0.55
2024-05-09T15:55:39.995Z,0.30
2024-05-09T15:58:07.835Z,0.40
2024-05-09T16:00:39.573Z,0.30
2024-05-09T16:03:10.626Z,0.43
2024-05-09T16:05:45.235Z,0.60
2024-05-09T16:08:13.150Z,0.32
2024-05-09T16:10:44.261Z,0.30
2024-05-09T16:13:13.390Z,0.65
2024-05-09T16:15:41.371Z,0.40
2024-05-09T16:18:09.263Z,0.63
2024-05-09T16:20:40.362Z,1.10
2024-05-09T16:23:11.225Z,0.50
2024-05-09T16:25:39.571Z,1.00
2024-05-09T16:28:10.181Z,0.43
2024-05-09T16:30:41.308Z,0.30
2024-05-09T16:33:09.519Z,0.25
2024-05-09T16:35:37.812Z,0.50
2024-05-09T16:38:05.901Z,0.50
2024-05-09T16:40:38.732Z,0.52
2024-05-09T16:43:10.349Z,0.47
2024-05-09T16:45:43.288Z,0.50
2024-05-09T16:48:11.976Z,0.50
2024-05-09T16:50:39.272Z,0.50
2024-05-09T16:53:07.307Z,0.93
2024-05-09T16:55:35.702Z,0.20
2024-05-09T16:58:07.085Z,0.68
2024-05-09T17:00:42.122Z,0.32
2024-05-09T17:03:16.645Z,0.43
2024-05-09T17:05:47.271Z,0.50
2024-05-09T17:08:22.483Z,0.63
2024-05-09T17:10:50.593Z,0.55
2024-05-09T17:13:21.713Z,0.40
2024-05-09T17:15:52.977Z,0.55
2024-05-09T17:18:20.667Z,0.55
2024-05-09T17:20:51.777Z,0.35
2024-05-09T17:23:20.409Z,0.45
2024-05-09T17:25:48.809Z,0.20
2024-05-09T17:28:16.146Z,0.43
2024-05-09T17:30:43.770Z,0.43
2024-05-09T17:33:13.433Z,0.45
2024-05-09T17:35:45.796Z,0.55
2024-05-09T17:38:14.037Z,0.63
2024-05-09T17:40:41.386Z,0.75
2024-05-09T17:43:10.604Z,0.20
2024-05-09T17:45:42.320Z,0.57
2024-05-09T17:48:11.029Z,0.38
2024-05-09T17:50:39.874Z,0.55
2024-05-09T17:53:08.878Z,0.32
2024-05-09T17:55:36.730Z,0.40
2024-05-09T17:58:05.248Z,0.28
2024-05-09T18:00:39.087Z,0.40
2024-05-09T18:03:11.741Z,0.28
2024-05-09T18:05:40.422Z,0.20
2024-05-09T18:08:08.452Z,0.35
2024-05-09T18:10:38.666Z,0.45
2024-05-09T18:13:11.404Z,0.30
2024-05-09T18:15:39.816Z,0.28
2024-05-09T18:18:08.930Z,0.22
2024-05-09T18:20:42.624Z,0.30
2024-05-09T18:23:14.383Z,0.35
2024-05-09T18:25:42.958Z,0.70
2024-05-09T18:28:11.959Z,0.20
2024-05-09T18:30:40.376Z,0.20
2024-05-09T18:33:09.783Z,0.28
2024-05-09T18:35:39.011Z,0.30
2024-05-09T18:38:06.545Z,0.50
2024-05-09T18:40:36.795Z,1.05
2024-05-09T18:43:07.389Z,1.15
2024-05-09T18:45:38.098Z,1.80
2024-05-09T18:48:07.587Z,1.60
2024-05-09T18:50:40.476Z,2.10
2024-05-09T18:53:10.659Z,1.65
2024-05-09T18:55:38.693Z,1.80
2024-05-09T18:58:05.974Z,1.90
2024-05-09T19:00:36.970Z,1.73
2024-05-09T19:03:09.680Z,2.00
2024-05-09T19:05:39.344Z,1.40
2024-05-09T19:08:07.840Z,3.35
2024-05-09T19:10:36.473Z,2.40
2024-05-09T19:13:08.658Z,2.00
2024-05-09T19:15:39.699Z,1.95
2024-05-09T19:18:07.553Z,2.45
2024-05-09T19:20:36.445Z,1.98
2024-05-09T19:23:07.638Z,1.88
2024-05-09T19:25:35.704Z,1.85
2024-05-09T19:28:04.022Z,2.00
2024-05-09T19:30:38.628Z,1.65
2024-05-09T19:33:09.779Z,2.05
2024-05-09T19:35:38.918Z,1.95
2024-05-09T19:38:06.255Z,1.70
2024-05-09T19:40:35.026Z,2.60
2024-05-09T19:43:04.244Z,1.85
2024-05-09T19:45:33.540Z,1.95
2024-05-09T19:48:01.672Z,2.65
2024-05-09T19:50:37.213Z,2.22
2024-05-09T19:53:10.201Z,2.78
2024-05-09T19:55:38.067Z,2.72
2024-05-09T19:58:07.440Z,2.38
2024-05-09T20:00:40.915Z,2.97
2024-05-09T20:04:02.203Z,2.33
2024-05-09T20:06:30.686Z,3.15
2024-05-09T20:08:59.087Z,2.65
2024-05-09T20:11:26.440Z,2.88
2024-05-09T20:13:53.575Z,3.08
2024-05-09T20:16:20.881Z,3.33
2024-05-09T20:18:48.439Z,3.15
2024-05-09T20:21:15.856Z,3.42
2024-05-09T20:23:42.976Z,3.40
2024-05-09T20:26:10.753Z,2.95
2024-05-09T20:28:37.811Z,3.30
2024-05-09T20:31:06.353Z,2.60
2024-05-09T20:33:34.093Z,2.70
2024-05-09T20:36:02.578Z,2.45
2024-05-09T20:38:30.683Z,3.08
2024-05-09T20:40:58.098Z,2.78
2024-05-09T20:43:25.530Z,3.20
2024-05-09T20:45:53.096Z,3.22
2024-05-09T20:48:20.459Z,3.00
2024-05-09T20:50:50.823Z,2.78
2024-05-09T20:53:18.408Z,2.25
2024-05-09T20:55:46.035Z,2.03
2024-05-09T20:58:13.732Z,3.10
2024-05-09T21:00:44.392Z,3.03
2024-05-09T21:03:16.606Z,3.17
2024-05-09T21:05:45.051Z,3.28
2024-05-09T21:08:12.585Z,2.38
2024-05-09T21:10:40.300Z,3.00
2024-05-09T21:13:08.002Z,3.28
2024-05-09T21:15:36.367Z,3.00
2024-05-09T21:18:04.841Z,2.80
2024-05-09T21:20:35.668Z,3.30
2024-05-09T21:23:06.207Z,2.90
2024-05-09T21:25:35.466Z,2.80
2024-05-09T21:28:03.257Z,3.03
2024-05-09T21:30:38.352Z,3.67
2024-05-09T21:33:11.559Z,3.10
2024-05-09T21:35:41.248Z,2.50
2024-05-09T21:38:08.525Z,2.58
2024-05-09T21:40:37.046Z,2.53
2024-05-09T21:43:08.402Z,3.35
2024-05-09T21:45:36.017Z,2.78
2024-05-09T21:48:04.159Z,2.95
2024-05-09T21:50:38.696Z,2.72
2024-05-09T21:53:08.662Z,2.88
2024-05-09T21:55:35.943Z,3.13
2024-05-09T21:58:03.629Z,3.03
2024-05-09T22:00:36.763Z,2.70
2024-05-09T22:03:10.085Z,2.10
2024-05-09T22:05:39.158Z,2.40
2024-05-09T22:08:07.194Z,2.10
2024-05-09T22:10:36.304Z,2.03
2024-05-09T22:13:08.327Z,2.35
2024-05-09T22:15:37.208Z,2.00
2024-05-09T22:18:05.708Z,2.00
2024-05-09T22:20:37.797Z,1.42
2024-05-09T22:23:07.626Z,1.65
2024-05-09T22:25:35.275Z,1.52
2024-05-09T22:28:03.194Z,1.35
2024-05-09T22:30:36.708Z,1.50
2024-05-09T22:33:08.143Z,1.25
2024-05-09T22:35:35.917Z,1.48
2024-05-09T22:38:03.557Z,1.52
2024-05-09T22:40:41.649Z,2.75
2024-05-09T22:43:17.144Z,1.85
2024-05-09T22:45:44.617Z,1.40
2024-05-09T22:48:12.002Z,1.55
2024-05-09T22:50:40.162Z,1.45
2024-05-09T22:53:07.230Z,1.40
2024-05-09T22:55:34.612Z,1.23
2024-05-09T22:58:01.732Z,1.98
2024-05-09T23:00:31.906Z,1.20
2024-05-09T23:03:01.116Z,1.55
2024-05-09T23:05:28.766Z,1.50
2024-05-09T23:07:56.174Z,1.58
2024-05-09T23:10:31.134Z,1.60
2024-05-09T23:13:02.879Z,1.58
2024-05-09T23:15:30.412Z,1.55
2024-05-09T23:17:58.390Z,1.00
2024-05-09T23:20:35.917Z,1.20
2024-05-09T23:23:07.080Z,1.23
2024-05-09T23:25:34.723Z,1.63
2024-05-09T23:28:02.156Z,2.00
2024-05-09T23:30:36.973Z,1.73
2024-05-09T23:33:07.462Z,1.67
2024-05-09T23:38:59.170Z,1.00
2024-05-09T23:41:43.562Z,1.65
2024-05-09T23:44:22.102Z,0.88
2024-05-09T23:46:52.999Z,1.30
2024-05-09T23:49:20.256Z,1.33
2024-05-09T23:51:47.493Z,1.90
2024-05-09T23:54:16.846Z,1.25
2024-05-09T23:56:44.034Z,1.63
2024-05-09T23:59:11.186Z,1.20
